Data for 05/28/2015

Time Sea-Level Adjusted Pressure Absolute Pressure Temperature Relative Humidity Dew Point   
(mb) (inHg) (mb) (inHg) (C) (F) (%) (C) (F)
00:05 1019 30.09 849 25.07 8.4 47.1 89 6.7 44
00:10 1019 30.09 849 25.07 8.4 47.1 89 6.7 44.1
00:15 1019 30.09 849 25.07 8.3 47 90 6.8 44.2
00:20 1019 30.09 849 25.07 8.3 47 90 6.7 44.1
00:25 1019 30.09 849 25.07 8.3 47 90 6.8 44.3
00:30 1019 30.09 849 25.07 8.2 46.8 90 6.7 44.1
00:35 1019 30.09 849 25.07 8.2 46.8 90 6.7 44.1
00:40 1019 30.09 849 25.07 8.3 47 90 6.7 44.1
00:45 1019 30.09 849 25.07 8.3 46.9 88 6.5 43.7
00:50 1019 30.09 848 25.04 8.4 47 87 6.4 43.5
00:55 1019 30.09 848 25.04 8.4 47.1 88 6.4 43.6
01:00 1019 30.09 848 25.04 8.4 47 88 6.5 43.7
01:05 1019 30.09 848 25.04 8.3 47 89 6.6 43.8
01:10 1019 30.09 849 25.07 8.3 46.9 89 6.6 43.8
01:15 1019 30.09 848 25.04 8.3 46.9 89 6.6 43.9
01:20 1019 30.09 849 25.07 8.3 46.9 89 6.6 43.8
01:25 1019 30.09 848 25.04 8.3 46.9 89 6.6 43.8
01:30 1019 30.09 848 25.04 8.3 47 89 6.6 43.8
01:35 1019 30.09 848 25.04 8.4 47.2 89 6.7 44
01:40 1019 30.09 848 25.04 8.5 47.4 88 6.7 44
01:45 1019 30.09 848 25.04 8.7 47.7 88 6.8 44.3
01:50 1019 30.09 848 25.04 8.8 47.8 88 6.8 44.3
01:55 1019 30.09 848 25.04 8.7 47.7 88 6.8 44.2
02:00 1019 30.09 848 25.04 8.7 47.6 87 6.7 44
02:05 1019 30.09 848 25.04 8.6 47.6 88 6.8 44.2
02:10 1019 30.09 848 25.04 8.5 47.3 89 6.7 44.1
02:15 1019 30.09 849 25.07 8.4 47.2 89 6.7 44.1
02:20 1019 30.09 849 25.07 8.4 47.2 89 6.7 44
02:25 1019 30.09 849 25.07 8.4 47.1 89 6.7 44
02:30 1019 30.09 849 25.07 8.4 47 89 6.6 43.9
02:35 1019 30.09 849 25.07 8.4 47.1 88 6.6 43.8
02:40 1019 30.09 848 25.04 8.4 47.1 88 6.5 43.7
02:45 1019 30.09 848 25.04 8.4 47.2 87 6.4 43.5
02:50 1019 30.09 848 25.04 8.5 47.4 87 6.4 43.6
02:55 1019 30.09 848 25.04 8.5 47.3 87 6.5 43.7
03:00 1019 30.09 848 25.04 8.4 47.2 87 6.5 43.7
03:05 1019 30.09 848 25.04 8.4 47.2 87 6.3 43.4
03:10 1019 30.09 848 25.04 8.5 47.2 87 6.5 43.6
03:15 1019 30.09 848 25.04 8.4 47.1 88 6.5 43.7
03:20 1019 30.09 848 25.04 8.3 47 88 6.4 43.6
03:25 1019 30.09 849 25.07 8.3 47 87 6.4 43.4
03:30 1019 30.09 849 25.07 8.3 46.9 87 6.2 43.2
03:35 1019 30.09 849 25.07 8.4 47.1 85 6.1 43
03:40 1019 30.09 849 25.07 8.4 47.2 85 6 42.9
03:45 1019 30.09 848 25.04 8.6 47.4 85 6.2 43.2
03:50 1019 30.09 848 25.04 8.7 47.6 86 6.4 43.5
03:55 1019 30.09 848 25.04 8.7 47.7 86 6.5 43.7
04:00 1019 30.09 848 25.04 8.7 47.6 85 6.4 43.5
04:05 1019 30.09 848 25.04 8.6 47.5 86 6.3 43.4
04:10 1019 30.09 848 25.04 8.6 47.5 84 6.1 42.9
04:15 1019 30.09 848 25.04 8.7 47.6 84 6.1 43.1
04:20 1019 30.09 849 25.07 8.6 47.6 84 6.1 43.1
04:25 1019 30.09 849 25.07 8.7 47.6 84 6.2 43.1
04:30 1019 30.09 849 25.07 8.7 47.7 84 6.1 43
04:35 1019 30.09 849 25.07 8.7 47.7 83 6 42.9
04:40 1019 30.09 849 25.07 8.7 47.6 83 6 42.8
04:45 1019 30.09 849 25.07 8.6 47.6 83 5.8 42.5
04:50 1020 30.12 849 25.07 8.7 47.6 83 5.9 42.6
04:55 1020 30.12 849 25.07 8.7 47.6 84 6.1 43
05:00 1020 30.12 849 25.07 8.6 47.5 85 6.3 43.4
05:05 1020 30.12 849 25.07 8.5 47.3 88 6.6 43.8
05:10 1020 30.12 849 25.07 8.5 47.2 88 6.6 43.9
05:15 1020 30.12 849 25.07 8.6 47.4 88 6.8 44.2
05:20 1020 30.12 849 25.07 8.7 47.6 88 6.8 44.2
05:25 1020 30.12 849 25.07 8.7 47.7 88 6.9 44.4
05:30 1020 30.12 849 25.07 8.8 47.8 88 6.8 44.3
05:35 1020 30.12 849 25.07 8.8 47.9 87 6.8 44.3
05:40 1020 30.12 849 25.07 8.9 48 87 6.8 44.3
05:45 1020 30.12 849 25.07 9 48.2 85 6.6 43.9
05:50 1020 30.12 849 25.07 9.1 48.4 84 6.5 43.7
05:55 1020 30.12 849 25.07 9.2 48.6 82 6.4 43.5
06:00 1020 30.12 849 25.07 9.3 48.7 82 6.3 43.4
06:05 1020 30.12 849 25.07 9.2 48.6 82 6.3 43.3
06:10 1020 30.12 849 25.07 9.2 48.5 83 6.4 43.5
06:15 1020 30.12 849 25.07 9.3 48.8 82 6.5 43.7
06:20 1020 30.12 849 25.07 9.5 49 83 6.7 44
06:25 1020 30.12 849 25.07 9.6 49.2 81 6.5 43.8
06:30 1020 30.12 849 25.07 9.6 49.3 81 6.5 43.8
06:35 1020 30.12 849 25.07 9.6 49.2 81 6.6 43.8
06:40 1020 30.12 849 25.07 9.7 49.4 80 6.5 43.6
06:45 1020 30.12 849 25.07 9.7 49.5 81 6.6 43.9
06:50 1020 30.12 850 25.1 9.8 49.7 81 6.7 44
06:55 1020 30.12 850 25.1 9.9 49.9 80 6.7 44
07:00 1020 30.12 850 25.1 10 50 81 6.8 44.3
07:05 1020 30.12 850 25.1 10 50 79 6.6 43.9
07:10 1021 30.15 850 25.1 10 50 79 6.5 43.7
07:15 1021 30.15 850 25.1 10.1 50.1 80 6.7 44.1
07:20 1021 30.15 850 25.1 10.1 50.2 80 6.9 44.5
07:25 1021 30.15 850 25.1 10.1 50.3 82 7.1 44.9
07:30 1021 30.15 850 25.1 10.1 50.2 82 7.1 44.8
07:35 1021 30.15 850 25.1 10 49.9 80 6.8 44.2
07:40 1021 30.15 850 25.1 10 49.9 81 6.8 44.2
07:45 1021 30.15 850 25.1 9.9 49.9 80 6.7 44.1
07:50 1021 30.15 850 25.1 9.8 49.7 81 6.8 44.2
07:55 1021 30.15 850 25.1 9.8 49.6 82 6.9 44.4
08:00 1021 30.15 850 25.1 9.7 49.5 83 7 44.6
08:05 1021 30.15 850 25.1 9.7 49.5 82 6.9 44.4
08:10 1021 30.15 850 25.1 9.8 49.6 82 6.8 44.2
08:15 1021 30.15 850 25.1 9.9 49.8 81 6.7 44.1
08:20 1021 30.15 850 25.1 10 50 80 6.7 44
08:25 1021 30.15 850 25.1 10.2 50.3 81 7 44.6
08:30 1021 30.15 850 25.1 10.2 50.3 81 7.1 44.7
08:35 1021 30.15 850 25.1 10.3 50.5 80 7 44.5
08:40 1021 30.15 850 25.1 10.6 51 78 6.9 44.5
08:45 1021 30.15 850 25.1 10.6 51.1 78 7 44.6
08:50 1021 30.15 850 25.1 10.9 51.5 78 7.3 45.1
08:55 1021 30.15 850 25.1 11 51.7 79 7.4 45.3
09:00 1021 30.15 850 25.1 10.8 51.4 81 7.6 45.8
09:05 1021 30.15 850 25.1 10.8 51.4 80 7.5 45.5
09:10 1021 30.15 850 25.1 10.6 51.1 80 7.4 45.3
09:15 1021 30.15 850 25.1 10.6 51 79 7.1 44.9
09:20 1021 30.15 850 25.1 10.5 50.9 82 7.7 45.8
09:25 1021 30.15 850 25.1 10.3 50.6 85 7.9 46.2
09:30 1021 30.15 850 25.1 10.3 50.6 83 7.6 45.7
09:35 1021 30.15 850 25.1 10.3 50.6 85 7.9 46.1
09:40 1021 30.15 850 25.1 10.5 50.9 83 7.7 45.9
09:45 1021 30.15 850 25.1 10.7 51.3 77 7 44.6
09:50 1021 30.15 850 25.1 11 51.9 77 7.1 44.8
09:55 1021 30.15 850 25.1 11.3 52.4 77 7.4 45.3
10:00 1021 30.15 850 25.1 11.5 52.8 73 6.9 44.4
10:05 1021 30.15 850 25.1 11.6 52.8 74 7 44.7
10:10 1021 30.15 851 25.13 11.7 53 74 7.2 45
10:15 1021 30.15 851 25.13 11.8 53.2 71 6.8 44.3
10:20 1021 30.15 851 25.13 11.8 53.2 72 6.9 44.4
10:25 1021 30.15 851 25.13 11.7 53.1 71 6.8 44.2
10:30 1021 30.15 851 25.13 11.7 53.1 73 7 44.6
10:35 1021 30.15 851 25.13 11.7 53.1 72 6.9 44.4
10:40 1021 30.15 851 25.13 11.7 53.1 73 7 44.6
10:45 1021 30.15 851 25.13 11.7 53.1 75 7.4 45.3
10:50 1021 30.15 851 25.13 11.9 53.4 71 6.7 44.1
10:55 1021 30.15 851 25.13 12.3 54.1 69 6.9 44.4
11:00 1021 30.15 851 25.13 12.8 55.1 68 7.1 44.7
11:05 1021 30.15 851 25.13 13.1 55.5 64 6.4 43.6
11:10 1021 30.15 851 25.13 13.1 55.5 65 6.8 44.2
11:15 1021 30.15 851 25.13 13.3 56 61 6.1 43
11:20 1021 30.15 851 25.13 12.7 54.9 65 6.4 43.5
11:25 1021 30.15 851 25.13 12.8 55 60 5.3 41.6
11:30 1021 30.15 851 25.13 12.7 54.9 62 5.6 42.1
11:35 1021 30.15 851 25.13 12.9 55.2 62 5.8 42.5
11:40 1021 30.15 851 25.13 13 55.5 60 5.6 42
11:45 1021 30.15 851 25.13 13.4 56 57 5.2 41.4
11:50 1021 30.15 851 25.13 13.2 55.8 60 5.6 42.1
11:55 1021 30.15 851 25.13 13.3 55.9 59 5.5 42
12:00 1021 30.15 851 25.13 13.6 56.4 59 5.7 42.3
12:05 1021 30.15 851 25.13 13.3 55.9 67 7.3 45.1
12:10 1022 30.18 851 25.13 12.7 54.9 72 7.9 46.2
12:15 1022 30.18 851 25.13 12.2 53.9 73 7.5 45.4
12:20 1022 30.18 851 25.13 11.9 53.3 75 7.6 45.6
12:25 1022 30.18 851 25.13 11.8 53.3 74 7.4 45.2
12:30 1022 30.18 851 25.13 11.6 52.9 76 7.6 45.7
12:35 1022 30.18 851 25.13 10.8 51.4 82 7.8 46
12:40 1022 30.18 851 25.13 10.6 51 83 7.8 46.1
12:45 1022 30.18 851 25.13 10.8 51.5 84 8.3 46.9
12:50 1022 30.18 851 25.13 11.1 52 82 8.1 46.7
12:55 1022 30.18 851 25.13 11.3 52.4 81 8.2 46.7
13:00 1022 30.18 851 25.13 11.4 52.5 81 8.2 46.8
13:05 1022 30.18 851 25.13 11.4 52.6 78 7.7 45.8
13:10 1022 30.18 851 25.13 11.2 52.2 80 7.9 46.2
13:15 1022 30.18 851 25.13 11 51.9 80 7.8 46
13:20 1022 30.18 851 25.13 11.1 52 76 7.1 44.8
13:25 1022 30.18 851 25.13 11.1 51.9 76 7 44.7
13:30 1022 30.18 851 25.13 11.1 51.9 78 7.4 45.3
13:35 1022 30.18 851 25.13 10.8 51.4 80 7.5 45.5
13:40 1022 30.18 851 25.13 11 51.7 79 7.4 45.4
13:45 1022 30.18 851 25.13 11.2 52.1 76 7.2 45
13:50 1022 30.18 851 25.13 11 51.8 79 7.5 45.4
13:55 1022 30.18 851 25.13 11.2 52.2 76 7.2 45
14:00 1022 30.18 851 25.13 11.4 52.4 75 7.1 44.7
14:05 1022 30.18 851 25.13 11.7 53.1 76 7.6 45.7
14:10 1022 30.18 851 25.13 11.8 53.2 73 7.1 44.8
14:15 1022 30.18 851 25.13 12 53.5 72 7.2 45
14:20 1022 30.18 851 25.13 12.4 54.3 70 7.1 44.9
14:25 1022 30.18 851 25.13 13.1 55.5 65 6.8 44.2
14:30 1022 30.18 851 25.13 12.2 54 72 7.4 45.3
14:35 1022 30.18 851 25.13 12.4 54.4 71 7.4 45.3
14:40 1022 30.18 852 25.16 13 55.3 68 7.2 45
14:45 1022 30.18 852 25.16 12.5 54.4 72 7.6 45.7
14:50 1022 30.18 852 25.16 12.1 53.8 78 8.4 47.2
14:55 1022 30.18 852 25.16 11.3 52.4 81 8.2 46.7
15:00 1022 30.18 852 25.16 10.9 51.7 83 8.2 46.8
15:05 1022 30.18 852 25.16 11 51.8 79 7.6 45.7
15:10 1022 30.18 852 25.16 10.9 51.7 81 7.9 46.2
15:15 1022 30.18 852 25.16 11 51.9 79 7.6 45.7
15:20 1022 30.18 852 25.16 11 51.8 81 7.9 46.2
15:25 1023 30.21 852 25.16 11 51.8 79 7.5 45.4
15:30 1023 30.21 852 25.16 11 51.9 78 7.3 45.2
15:35 1023 30.21 852 25.16 11.1 52 80 7.8 46.1
15:40 1023 30.21 852 25.16 11.3 52.4 81 8.2 46.7
15:45 1023 30.21 852 25.16 11.5 52.6 79 7.9 46.2
15:50 1023 30.21 852 25.16 11.7 53.1 75 7.4 45.4
15:55 1023 30.21 852 25.16 12.1 53.7 74 7.6 45.6
16:00 1023 30.21 852 25.16 12.4 54.2 69 6.9 44.4
16:05 1023 30.21 852 25.16 12.7 54.8 71 7.5 45.5
16:10 1023 30.21 852 25.16 12.5 54.5 73 7.9 46.2
16:15 1023 30.21 852 25.16 12.5 54.4 71 7.4 45.3
16:20 1023 30.21 852 25.16 12.2 54 72 7.4 45.4
16:25 1023 30.21 852 25.16 12 53.6 78 8.3 46.9
16:30 1023 30.21 852 25.16 11.5 52.7 78 7.9 46.2
16:35 1023 30.21 852 25.16 11.1 52 82 8.3 46.9
16:40 1023 30.21 852 25.16 10.9 51.6 83 8.2 46.8
16:45 1023 30.21 852 25.16 10.7 51.3 85 8.2 46.8
16:50 1023 30.21 852 25.16 10.5 51 85 8.2 46.8
16:55 1023 30.21 852 25.16 10.3 50.5 85 7.9 46.3
17:00 1023 30.21 853 25.19 10.2 50.3 86 8 46.4
17:05 1023 30.21 853 25.19 10.2 50.3 88 8.2 46.8
17:10 1023 30.21 853 25.19 9.8 49.6 87 7.8 46
17:15 1023 30.21 853 25.19 9.6 49.2 88 7.7 45.8
17:20 1023 30.21 853 25.19 9.6 49.2 88 7.7 45.9
17:25 1023 30.21 853 25.19 9.6 49.2 88 7.7 45.8
17:30 1023 30.21 853 25.19 9.6 49.2 88 7.7 45.8
17:35 1023 30.21 853 25.19 9.5 49.1 87 7.4 45.4
17:40 1023 30.21 853 25.19 9.7 49.4 87 7.6 45.7
17:45 1023 30.21 853 25.19 9.8 49.7 87 7.7 45.8
17:50 1023 30.21 853 25.19 9.8 49.6 85 7.4 45.3
17:55 1024 30.24 853 25.19 9.7 49.5 87 7.7 45.8
18:00 1024 30.24 853 25.19 9.9 49.8 85 7.5 45.4
18:05 1024 30.24 853 25.19 10.1 50.3 83 7.4 45.4
18:10 1023 30.21 853 25.19 10.2 50.3 84 7.6 45.6
18:15 1024 30.24 853 25.19 10.3 50.5 81 7.1 44.9
18:20 1024 30.24 853 25.19 10.2 50.4 81 7.1 44.7
18:25 1024 30.24 853 25.19 10.1 50.2 79 6.7 44.1
18:30 1024 30.24 853 25.19 10.1 50.1 81 7 44.6
18:35 1024 30.24 853 25.19 10 50 80 6.7 44.1
18:40 1024 30.24 853 25.19 9.8 49.7 81 6.7 44.1
18:45 1024 30.24 853 25.19 9.9 49.8 82 6.9 44.5
18:50 1024 30.24 853 25.19 9.9 49.8 82 7 44.7
18:55 1024 30.24 853 25.19 10 49.9 83 7.2 44.9
19:00 1024 30.24 853 25.19 10 49.9 81 6.9 44.5
19:05 1024 30.24 853 25.19 10 49.9 82 7.1 44.7
19:10 1024 30.24 853 25.19 10 50.1 82 7.1 44.7
19:15 1024 30.24 853 25.19 10.1 50.1 82 7.1 44.8
19:20 1024 30.24 853 25.19 10.1 50.3 82 7.2 45
19:25 1024 30.24 853 25.19 10.2 50.3 81 7.1 44.7
19:30 1024 30.24 853 25.19 10.2 50.3 82 7.3 45.1
19:35 1024 30.24 853 25.19 10.1 50.3 81 7 44.6
19:40 1024 30.24 853 25.19 10.1 50.2 81 6.9 44.4
19:45 1024 30.24 853 25.19 10.1 50.2 82 7.1 44.8
19:50 1024 30.24 853 25.19 10.1 50.2 82 7.3 45.1
19:55 1024 30.24 854 25.22 10.1 50.2 84 7.5 45.5
20:00 1024 30.24 854 25.22 10.1 50.1 80 6.8 44.3
20:05 1024 30.24 854 25.22 10.1 50.2 81 7 44.6
20:10 1024 30.24 854 25.22 10.1 50.2 85 7.6 45.7
20:15 1025 30.27 854 25.22 10 50 86 7.8 46.1
20:20 1025 30.27 854 25.22 9.9 49.7 87 7.8 46
20:25 1025 30.27 854 25.22 9.8 49.6 87 7.7 45.9
20:30 1025 30.27 854 25.22 9.7 49.4 88 7.7 45.9
20:35 1025 30.27 854 25.22 9.6 49.3 87 7.6 45.8
20:40 1025 30.27 854 25.22 9.6 49.3 88 7.7 45.8
20:45 1025 30.27 854 25.22 9.6 49.3 88 7.6 45.8
20:50 1025 30.27 854 25.22 9.6 49.2 87 7.5 45.6
20:55 1025 30.27 854 25.22 9.6 49.2 87 7.5 45.5
21:00 1025 30.27 854 25.22 9.6 49.3 83 6.9 44.5
21:05 1025 30.27 854 25.22 9.7 49.5 84 7.1 44.8
21:10 1025 30.27 854 25.22 9.7 49.5 85 7.3 45.1
21:15 1025 30.27 854 25.22 9.7 49.4 85 7.3 45.2
21:20 1025 30.27 854 25.22 9.7 49.4 85 7.3 45.1
21:25 1025 30.27 854 25.22 9.5 49.1 83 6.7 44
21:30 1025 30.27 854 25.22 9.3 48.8 81 6.3 43.3
21:35 1025 30.27 854 25.22 9.3 48.7 82 6.3 43.3
21:40 1025 30.27 854 25.22 9.1 48.4 83 6.4 43.5
21:45 1025 30.27 854 25.22 9.1 48.3 85 6.6 43.9
21:50 1025 30.27 854 25.22 9 48.3 85 6.7 44.1
21:55 1025 30.27 854 25.22 9 48.2 86 6.8 44.3
22:00 1025 30.27 854 25.22 9 48.2 87 6.9 44.5
22:05 1025 30.27 855 25.25 9 48.3 87 7.1 44.7
22:10 1025 30.27 855 25.25 9 48.2 88 7.1 44.8
22:15 1025 30.27 855 25.25 8.9 48 88 7.1 44.7
22:20 1025 30.27 855 25.25 8.8 47.8 89 7 44.6
22:25 1025 30.27 854 25.22 8.6 47.5 89 6.9 44.4
22:30 1025 30.27 854 25.22 8.6 47.4 90 7 44.6
22:35 1025 30.27 854 25.22 8.5 47.3 90 7 44.6
22:40 1025 30.27 854 25.22 8.4 47.1 91 7 44.6
22:45 1025 30.27 854 25.22 8.4 47.1 91 7 44.6
22:50 1025 30.27 854 25.22 8.3 47 91 7 44.5
22:55 1025 30.27 855 25.25 8.4 47.1 91 6.9 44.5
23:00 1025 30.27 855 25.25 8.4 47.2 91 7 44.6
23:05 1025 30.27 855 25.25 8.5 47.3 91 7.1 44.7
23:10 1025 30.27 855 25.25 8.6 47.5 91 7.2 44.9
23:15 1025 30.27 855 25.25 8.7 47.7 91 7.3 45.1
23:20 1025 30.27 855 25.25 8.8 47.8 91 7.4 45.3
23:25 1025 30.27 854 25.22 8.8 47.9 91 7.4 45.3
23:30 1025 30.27 854 25.22 8.7 47.6 91 7.3 45.2
23:35 1025 30.27 855 25.25 8.7 47.6 92 7.4 45.3
23:40 1025 30.27 855 25.25 8.7 47.6 92 7.4 45.3
23:45 1025 30.27 855 25.25 8.7 47.6 92 7.4 45.3
23:50 1025 30.27 855 25.25 8.6 47.5 92 7.4 45.3
23:55 1025 30.27 855 25.25 8.6 47.5 92 7.4 45.3
24:00 1025 30.27 855 25.25 8.6 47.5 92 7.3 45.2